Time;durP1;ratioP1;P1;durP2;ratioP2;P2;SDS_P1;SDS_P2;PMS_P1;PMS_P2;Temp;Humidity;BMP_temperature;BMP_pressure;BME280_temperature;BME280_humidity;BME280_pressure;Samples;Min_cycle;Max_cycle;Signal;HPM_P1;HPM_P2
2021/08/06 00:00:31;;;;;;;1.75;0.65;;;;;;;;;;4996441;28;19921;-93
2021/08/06 00:02:57;;;;;;;2.00;0.70;;;;;;;;;;4978481;28;20038;-93
2021/08/06 00:05:23;;;;;;;1.08;0.60;;;;;;;;;;4982345;28;20045;-95
2021/08/06 00:07:49;;;;;;;3.42;0.98;;;;;;;;;;4993346;28;20041;-92
2021/08/06 00:10:15;;;;;;;1.58;0.93;;;;;;;;;;4976446;28;20023;-95
2021/08/06 00:12:42;;;;;;;1.00;0.57;;;;;;;;;;4978156;28;20033;-94
2021/08/06 00:15:08;;;;;;;6.50;1.05;;;;;;;;;;4996121;28;20019;-95
2021/08/06 00:17:34;;;;;;;2.22;0.93;;;;;;;;;;4983534;28;20037;-94
2021/08/06 00:20:01;;;;;;;0.73;0.70;;;19.80;68.40;;;;;;4985995;28;20409;-94
2021/08/06 00:22:27;;;;;;;1.10;0.68;;;;;;;;;;4986477;28;20392;-94
2021/08/06 00:24:53;;;;;;;1.15;0.65;;;;;;;;;;4976116;28;20117;-94
2021/08/06 00:27:19;;;;;;;1.05;0.63;;;;;;;;;;4995084;28;20477;-93
2021/08/06 00:29:45;;;;;;;1.40;0.90;;;;;;;;;;4984443;28;20057;-94
2021/08/06 00:32:11;;;;;;;1.63;0.93;;;;;;;;;;4991901;28;20066;-94
2021/08/06 00:34:37;;;;;;;1.80;1.05;;;;;;;;;;4976027;28;20042;-96
2021/08/06 00:37:03;;;;;;;3.63;0.90;;;;;;;;;;4977585;28;20497;-94
2021/08/06 00:39:29;;;;;;;2.05;1.50;;;;;;;;;;4981115;28;20395;-94
2021/08/06 00:41:55;;;;;;;1.67;0.70;;;;;;;;;;4994081;28;20054;-94
2021/08/06 00:44:21;;;;;;;0.47;0.40;;;;;;;;;;4976530;28;20118;-95
2021/08/06 00:46:47;;;;;;;4.88;0.73;;;;;;;;;;4986748;28;20038;-94
2021/08/06 00:49:13;;;;;;;2.33;2.13;;;;;;;;;;4994833;28;20117;-93
2021/08/06 00:51:39;;;;;;;3.60;0.75;;;;;;;;;;4990738;28;20030;-93
2021/08/06 00:54:05;;;;;;;1.30;0.80;;;;;;;;;;4994805;28;20057;-94
2021/08/06 00:56:31;;;;;;;1.25;0.52;;;;;;;;;;4975361;28;20053;-95
2021/08/06 00:58:57;;;;;;;0.70;0.63;;;;;;;;;;4967817;28;20121;-94
2021/08/06 01:01:25;;;;;;;1.55;0.85;;;19.90;67.10;;;;;;4994720;28;20030;-94
2021/08/06 01:04:13;;;;;;;2.80;0.77;;;19.90;65.70;;;;;;4994433;28;20065;-94
2021/08/06 01:06:39;;;;;;;4.18;1.20;;;;;;;;;;4994829;28;20070;-95
2021/08/06 01:09:32;;;;;;;1.45;0.88;;;19.80;86.40;;;;;;4982136;28;20069;-96
2021/08/06 01:12:05;;;;;;;1.27;1.00;;;19.90;67.30;;;;;;4994550;28;20419;-94
2021/08/06 01:14:36;;;;;;;1.88;0.70;;;20.00;67.70;;;;;;4992079;28;20026;-95
2021/08/06 01:17:02;;;;;;;0.82;0.73;;;;;;;;;;4981593;28;20057;-95
2021/08/06 01:19:31;;;;;;;2.88;0.88;;;;;;;;;;4979559;28;20023;-93
2021/08/06 01:22:14;;;;;;;1.48;0.85;;;19.90;68.70;;;;;;4976570;28;20058;-93
2021/08/06 01:24:41;;;;;;;2.53;0.77;;;;;;;;;;4961264;28;20062;-94
2021/08/06 01:27:07;;;;;;;1.33;0.93;;;;;;;;;;4973900;28;20098;-95
2021/08/06 01:29:33;;;;;;;25.83;1.38;;;;;;;;;;4973903;28;20050;-94
2021/08/06 01:31:59;;;;;;;2.40;0.80;;;;;;;;;;4993992;28;20026;-94
2021/08/06 01:34:25;;;;;;;0.70;0.43;;;;;;;;;;4973587;28;20029;-94
2021/08/06 01:36:51;;;;;;;1.65;1.02;;;;;;;;;;4959554;28;20502;-95
2021/08/06 01:39:17;;;;;;;0.63;0.63;;;;;;;;;;4993866;28;20030;-95
2021/08/06 01:41:59;;;;;;;0.73;0.63;;;;;;;;;;4973324;28;20058;-94
2021/08/06 01:44:47;;;;;;;2.70;0.70;;;19.70;87.30;;;;;;4969027;28;20846;-93
2021/08/06 01:47:21;;;;;;;1.13;0.73;;;19.90;67.00;;;;;;4993841;28;20168;-94
2021/08/06 01:49:59;;;;;;;2.03;0.70;;;19.90;65.40;;;;;;4976843;28;20032;-93
2021/08/06 01:52:30;;;;;;;4.30;1.63;;;20.00;67.10;;;;;;4994258;28;20089;-95
2021/08/06 01:55:01;;;;;;;1.25;0.50;;;;;;;;;;4975208;28;20030;-94
2021/08/06 01:57:27;;;;;;;1.27;0.77;;;;;;;;;;4974633;28;20026;-95
2021/08/06 01:59:53;;;;;;;3.63;1.13;;;;;;;;;;4992926;28;20774;-93
2021/08/06 02:02:20;;;;;;;1.83;0.73;;;;;;;;;;4971666;28;20026;-95
2021/08/06 02:04:46;;;;;;;2.90;1.10;;;;;;;;;;4994160;28;20491;-93
2021/08/06 02:07:15;;;;;;;1.52;0.82;;;19.80;67.90;;;;;;4971485;28;20097;-95
2021/08/06 02:09:42;;;;;;;1.58;0.90;;;;;;;;;;4975423;28;20031;-93
2021/08/06 02:12:08;;;;;;;1.75;0.88;;;;;;;;;;4993463;28;20034;-94
2021/08/06 02:14:35;;;;;;;1.77;1.25;;;19.90;65.10;;;;;;4993691;28;20483;-95
2021/08/06 02:17:01;;;;;;;1.85;1.08;;;;;;;;;;4964638;28;20057;-95
2021/08/06 02:19:29;;;;;;;2.58;0.57;;;19.90;64.70;;;;;;4973150;28;20030;-93
2021/08/06 02:21:58;;;;;;;1.15;0.60;;;19.90;65.30;;;;;;4973106;28;20803;-94
2021/08/06 02:24:28;;;;;;;0.90;0.50;;;19.90;66.30;;;;;;4957000;28;20573;-93
2021/08/06 02:26:54;;;;;;;1.33;0.73;;;;;;;;;;4975331;28;20030;-94
2021/08/06 02:29:22;;;;;;;1.27;0.68;;;19.90;65.00;;;;;;4993110;28;20062;-95
2021/08/06 02:31:48;;;;;;;1.63;1.08;;;;;;;;;;4993080;28;20028;-94
2021/08/06 02:34:15;;;;;;;2.28;0.57;;;;;;;;;;4993746;28;20033;-96
2021/08/06 02:36:42;;;;;;;1.80;0.60;;;;;;;;;;4992735;28;20053;-94
2021/08/06 02:39:27;;;;;;;1.23;0.90;;;;;;;;;;4972860;28;20033;-93
2021/08/06 02:41:56;;;;;;;1.27;0.55;;;19.90;66.00;;;;;;4980206;28;20169;-93
2021/08/06 02:44:22;;;;;;;1.55;0.77;;;;;;;;;;4993059;28;20030;-93
2021/08/06 02:46:48;;;;;;;9.35;0.93;;;;;;;;;;4993736;28;20030;-94
2021/08/06 02:49:14;;;;;;;1.60;0.80;;;;;;;;;;4993071;28;20510;-92
2021/08/06 02:51:40;;;;;;;1.40;0.82;;;;;;;;;;4975913;28;20034;-94
2021/08/06 02:54:06;;;;;;;3.42;0.90;;;;;;;;;;4993017;28;20026;-94
2021/08/06 02:56:33;;;;;;;1.70;0.80;;;;;;;;;;4979836;28;20180;-94
2021/08/06 02:58:59;;;;;;;4.40;0.63;;;;;;;;;;4967729;28;20037;-94
2021/08/06 03:01:25;;;;;;;0.93;0.85;;;;;;;;;;4993586;28;20027;-94
2021/08/06 03:03:51;;;;;;;0.85;0.77;;;;;;;;;;4981749;28;20106;-94
2021/08/06 03:06:17;;;;;;;3.25;1.15;;;;;;;;;;4993531;28;20041;-94
2021/08/06 03:08:43;;;;;;;0.98;0.70;;;;;;;;;;4963501;28;20034;-94
2021/08/06 03:11:09;;;;;;;2.25;1.00;;;;;;;;;;4986621;28;20419;-94
2021/08/06 03:13:35;;;;;;;3.70;1.02;;;;;;;;;;4969086;28;20069;-95
2021/08/06 03:16:01;;;;;;;0.93;0.77;;;;;;;;;;4993266;28;20022;-94
2021/08/06 03:18:27;;;;;;;1.88;1.08;;;;;;;;;;4975890;28;20095;-96
2021/08/06 03:20:55;;;;;;;1.33;0.65;;;;;;;;;;4992695;28;20483;-94
2021/08/06 03:23:21;;;;;;;2.30;1.27;;;;;;;;;;4988473;28;20023;-95
2021/08/06 03:25:47;;;;;;;3.83;1.30;;;;;;;;;;4956750;28;20042;-93
2021/08/06 03:28:13;;;;;;;2.55;0.93;;;;;;;;;;4978328;28;20445;-96
2021/08/06 03:30:40;;;;;;;0.88;0.82;;;;;;;;;;4975636;28;20030;-95
2021/08/06 03:33:06;;;;;;;1.95;1.20;;;;;;;;;;4993546;28;20034;-94
2021/08/06 03:35:32;;;;;;;2.17;0.90;;;;;;;;;;4971045;28;20062;-93
2021/08/06 03:37:58;;;;;;;0.93;0.60;;;;;;;;;;4970703;28;20030;-95
2021/08/06 03:40:24;;;;;;;1.80;1.08;;;;;;;;;;4978398;28;20529;-95
2021/08/06 03:42:50;;;;;;;1.95;0.68;;;;;;;;;;4996063;28;20030;-94
2021/08/06 03:45:16;;;;;;;7.13;1.13;;;;;;;;;;4995500;28;20033;-95
2021/08/06 03:47:42;;;;;;;2.95;0.50;;;;;;;;;;4978758;28;20514;-95
2021/08/06 03:50:09;;;;;;;2.35;1.88;;;;;;;;;;4996483;28;20023;-95
2021/08/06 03:52:35;;;;;;;1.77;1.27;;;;;;;;;;4996372;28;20033;-94
2021/08/06 03:55:01;;;;;;;1.90;1.33;;;;;;;;;;4995151;28;20022;-94
2021/08/06 03:57:27;;;;;;;4.25;0.95;;;;;;;;;;4996524;28;20026;-94
2021/08/06 03:59:53;;;;;;;1.02;0.75;;;;;;;;;;4995664;28;20026;-93
2021/08/06 04:02:19;;;;;;;1.58;0.90;;;;;;;;;;4978597;28;20030;-93
2021/08/06 04:04:45;;;;;;;1.60;1.15;;;;;;;;;;4974270;28;20015;-94
2021/08/06 04:07:11;;;;;;;1.20;0.70;;;;;;;;;;4976634;28;20027;-94
2021/08/06 04:09:37;;;;;;;4.53;0.73;;;;;;;;;;4981070;28;20033;-92
2021/08/06 04:12:03;;;;;;;2.20;0.93;;;;;;;;;;4996087;28;20090;-93
2021/08/06 04:14:29;;;;;;;1.27;0.60;;;;;;;;;;4994267;28;20033;-94
2021/08/06 04:16:55;;;;;;;1.73;1.00;;;;;;;;;;4987162;28;20018;-95
2021/08/06 04:19:21;;;;;;;2.53;1.00;;;;;;;;;;4972174;28;20149;-94
2021/08/06 04:21:47;;;;;;;1.38;1.10;;;;;;;;;;4990553;28;20050;-91
2021/08/06 04:24:13;;;;;;;4.57;0.80;;;;;;;;;;4978206;28;20519;-92
2021/08/06 04:26:39;;;;;;;0.75;0.70;;;;;;;;;;4994597;28;20030;-91
2021/08/06 04:29:05;;;;;;;1.20;0.93;;;;;;;;;;4977911;28;20502;-92
2021/08/06 04:31:31;;;;;;;3.45;1.10;;;;;;;;;;4972712;28;20037;-93
2021/08/06 04:33:57;;;;;;;2.65;1.35;;;;;;;;;;4995474;28;20022;-92
2021/08/06 04:36:23;;;;;;;1.23;0.80;;;;;;;;;;4974493;28;20547;-91
2021/08/06 04:38:49;;;;;;;4.80;1.08;;;;;;;;;;4995437;28;20054;-90
2021/08/06 04:41:18;;;;;;;1.98;1.02;;;19.20;66.70;;;;;;4977138;28;20062;-92
2021/08/06 04:43:44;;;;;;;2.60;0.63;;;;;;;;;;4995227;28;20057;-91
2021/08/06 04:46:10;;;;;;;3.58;0.85;;;;;;;;;;4991336;28;20022;-92
2021/08/06 04:48:36;;;;;;;2.08;1.50;;;;;;;;;;4994724;28;20026;-93
2021/08/06 04:51:02;;;;;;;3.00;1.13;;;;;;;;;;4992848;28;20030;-93
2021/08/06 04:53:28;;;;;;;6.28;2.72;;;;;;;;;;4978050;28;20058;-92
2021/08/06 04:55:54;;;;;;;2.70;0.80;;;;;;;;;;4976488;28;20850;-91
2021/08/06 04:58:20;;;;;;;0.75;0.60;;;;;;;;;;4994688;28;20104;-91
2021/08/06 05:00:46;;;;;;;2.05;0.88;;;;;;;;;;4990743;28;20026;-92
2021/08/06 05:03:12;;;;;;;3.08;0.80;;;;;;;;;;4970840;28;20692;-92
2021/08/06 05:05:38;;;;;;;1.23;0.75;;;;;;;;;;4973880;28;20027;-91
2021/08/06 05:08:04;;;;;;;8.02;0.75;;;;;;;;;;4981451;28;20046;-93
2021/08/06 05:10:30;;;;;;;2.47;1.00;;;;;;;;;;4977319;28;20022;-91
2021/08/06 05:12:56;;;;;;;3.45;0.77;;;;;;;;;;4965006;28;20170;-92
2021/08/06 05:15:22;;;;;;;1.55;0.82;;;;;;;;;;4994943;28;20030;-92
2021/08/06 05:17:49;;;;;;;3.30;1.38;;;;;;;;;;4964656;28;20037;-92
2021/08/06 05:20:15;;;;;;;2.37;0.50;;;;;;;;;;4988552;28;20442;-92
2021/08/06 05:22:41;;;;;;;0.85;0.60;;;;;;;;;;4980450;28;20398;-91
2021/08/06 05:25:07;;;;;;;1.85;1.25;;;;;;;;;;4994399;28;20061;-91
2021/08/06 05:27:33;;;;;;;2.13;1.15;;;;;;;;;;4994625;28;20104;-92
2021/08/06 05:29:59;;;;;;;1.35;1.15;;;;;;;;;;4977126;28;20443;-91
2021/08/06 05:32:25;;;;;;;2.42;0.60;;;;;;;;;;4986590;28;20026;-91
2021/08/06 05:34:51;;;;;;;1.48;0.77;;;;;;;;;;4977006;28;20539;-92
2021/08/06 05:37:17;;;;;;;2.15;0.95;;;;;;;;;;4994621;28;20415;-92
2021/08/06 05:39:43;;;;;;;0.63;0.50;;;;;;;;;;4961391;28;20110;-93
2021/08/06 05:42:09;;;;;;;2.67;0.95;;;;;;;;;;4957744;28;20078;-92
2021/08/06 05:44:35;;;;;;;0.80;0.50;;;;;;;;;;4991502;28;20022;-92
2021/08/06 05:47:01;;;;;;;2.17;0.98;;;;;;;;;;4993733;28;20088;-92
2021/08/06 05:49:27;;;;;;;5.57;1.35;;;;;;;;;;4967366;28;20498;-92
2021/08/06 05:51:53;;;;;;;1.05;0.55;;;;;;;;;;4991572;28;20026;-91
2021/08/06 05:54:19;;;;;;;3.28;0.77;;;;;;;;;;4970736;28;20030;-93
2021/08/06 05:56:45;;;;;;;4.75;0.93;;;;;;;;;;4976573;28;20077;-91
2021/08/06 05:59:11;;;;;;;2.92;2.28;;;;;;;;;;4984362;28;20030;-90
2021/08/06 06:01:37;;;;;;;2.00;0.47;;;;;;;;;;4965410;28;20026;-91
2021/08/06 06:04:03;;;;;;;1.40;0.90;;;;;;;;;;4974751;28;20146;-91
2021/08/06 06:06:31;;;;;;;1.08;0.68;;;;;;;;;;4976485;28;20057;-93
2021/08/06 06:08:57;;;;;;;1.20;0.60;;;;;;;;;;4989993;28;20548;-91
2021/08/06 06:11:23;;;;;;;1.65;0.50;;;;;;;;;;4983524;28;20026;-92
2021/08/06 06:13:49;;;;;;;1.25;0.38;;;;;;;;;;4964583;28;20711;-91
2021/08/06 06:16:15;;;;;;;2.03;0.50;;;;;;;;;;4992167;28;20023;-92
2021/08/06 06:18:41;;;;;;;11.20;0.90;;;;;;;;;;4991306;28;20095;-92
2021/08/06 06:21:10;;;;;;;3.70;0.80;;;;;;;;;;4993975;28;20108;-91
2021/08/06 06:23:36;;;;;;;2.17;0.55;;;;;;;;;;4961039;28;20117;-91
2021/08/06 06:26:02;;;;;;;1.48;0.60;;;;;;;;;;4976067;28;20109;-93
2021/08/06 06:28:28;;;;;;;0.93;0.60;;;;;;;;;;4993490;28;20042;-91
2021/08/06 06:30:54;;;;;;;5.25;0.82;;;;;;;;;;4991448;28;20022;-92
2021/08/06 06:33:20;;;;;;;2.13;0.95;;;;;;;;;;4993336;28;20026;-92
2021/08/06 06:35:46;;;;;;;1.25;0.65;;;;;;;;;;4993272;28;20042;-92
2021/08/06 06:38:12;;;;;;;3.85;0.82;;;;;;;;;;4992844;28;20439;-91
2021/08/06 06:40:38;;;;;;;4.90;1.02;;;;;;;;;;4990893;28;20117;-92
2021/08/06 06:43:04;;;;;;;2.67;0.60;;;;;;;;;;4960308;28;20062;-92
2021/08/06 06:45:30;;;;;;;1.70;1.27;;;;;;;;;;4992979;28;20025;-91
2021/08/06 06:47:56;;;;;;;2.45;1.45;;;;;;;;;;4992943;28;20125;-92
2021/08/06 06:50:24;;;;;;;1.23;0.90;;;;;;;;;;4984953;28;20081;-92
2021/08/06 06:52:50;;;;;;;7.18;0.85;;;;;;;;;;4983834;28;20057;-92
2021/08/06 06:55:16;;;;;;;2.60;0.85;;;;;;;;;;4991744;28;20026;-92
2021/08/06 06:57:42;;;;;;;5.57;0.95;;;;;;;;;;4992873;28;20672;-92
2021/08/06 07:00:09;;;;;;;3.53;0.70;;;;;;;;;;4991429;28;20033;-92
2021/08/06 07:02:35;;;;;;;1.43;0.70;;;;;;;;;;4993104;28;20029;-91
2021/08/06 07:05:00;;;;;;;3.50;1.17;;;;;;;;;;4983979;28;20050;-92
2021/08/06 07:07:27;;;;;;;5.25;1.55;;;;;;;;;;4992848;28;20041;-92
2021/08/06 07:09:53;;;;;;;7.25;0.82;;;;;;;;;;4995330;28;20022;-91
2021/08/06 07:12:18;;;;;;;2.65;0.35;;;;;;;;;;4959894;28;20085;-92
2021/08/06 07:14:44;;;;;;;0.40;0.40;;;;;;;;;;4994255;28;20465;-92
2021/08/06 07:17:10;;;;;;;1.05;0.38;;;;;;;;;;4982206;28;20026;-91
2021/08/06 07:19:36;;;;;;;0.70;0.47;;;;;;;;;;4985239;28;20025;-92
2021/08/06 07:22:02;;;;;;;1.55;0.40;;;;;;;;;;4983111;28;20034;-92
2021/08/06 07:24:29;;;;;;;2.58;0.30;;;;;;;;;;4959995;28;20029;-91
2021/08/06 07:26:55;;;;;;;0.93;0.55;;;;;;;;;;4971230;28;20389;-93
2021/08/06 07:29:21;;;;;;;4.10;0.75;;;;;;;;;;4996186;28;20037;-92
2021/08/06 07:31:47;;;;;;;1.57;0.50;;;;;;;;;;4988666;28;20069;-92
2021/08/06 07:34:13;;;;;;;1.60;0.27;;;;;;;;;;4986898;28;20042;-93
2021/08/06 07:36:39;;;;;;;1.23;0.43;;;;;;;;;;4978869;28;20031;-91
2021/08/06 07:39:05;;;;;;;1.00;0.67;;;;;;;;;;4995840;28;20027;-92
2021/08/06 07:41:31;;;;;;;1.80;0.40;;;;;;;;;;4995760;28;20305;-92
2021/08/06 07:43:57;;;;;;;2.03;0.40;;;;;;;;;;4979947;28;20026;-92
2021/08/06 07:46:23;;;;;;;0.63;0.20;;;;;;;;;;4991135;28;20031;-91
2021/08/06 07:48:49;;;;;;;1.80;0.90;;;;;;;;;;4976403;28;20121;-91
2021/08/06 07:51:15;;;;;;;5.82;0.60;;;;;;;;;;4996198;28;20041;-91
2021/08/06 07:53:41;;;;;;;4.77;0.53;;;;;;;;;;4995483;28;20725;-90
2021/08/06 07:56:07;;;;;;;5.90;0.20;;;;;;;;;;4971018;28;20026;-91
2021/08/06 07:58:33;;;;;;;1.00;0.27;;;;;;;;;;4978073;28;20491;-91
2021/08/06 08:00:59;;;;;;;0.70;0.27;;;;;;;;;;4977336;28;20030;-91
2021/08/06 08:03:25;;;;;;;2.23;1.37;;;;;;;;;;4986577;28;20271;-91
2021/08/06 08:05:51;;;;;;;1.87;0.20;;;;;;;;;;4978125;28;20117;-90
2021/08/06 08:08:17;;;;;;;2.35;0.30;;;;;;;;;;4974059;28;20398;-90
2021/08/06 08:10:43;;;;;;;0.37;0.10;;;;;;;;;;4986885;28;20093;-90
2021/08/06 08:13:09;;;;;;;1.13;0.45;;;;;;;;;;4980458;28;20031;-91
2021/08/06 08:15:35;;;;;;;8.23;0.53;;;;;;;;;;4976127;28;20030;-91
2021/08/06 08:18:01;;;;;;;0.77;0.30;;;;;;;;;;4993496;28;20022;-90
2021/08/06 08:20:27;;;;;;;0.22;0.20;;;;;;;;;;4976840;28;20324;-91
2021/08/06 08:22:53;;;;;;;1.50;0.40;;;;;;;;;;4970675;28;20052;-92
2021/08/06 08:25:19;;;;;;;0.93;0.50;;;;;;;;;;4984615;28;20037;-91
2021/08/06 08:27:45;;;;;;;2.55;0.60;;;;;;;;;;4994597;28;20077;-90
2021/08/06 08:30:11;;;;;;;2.53;0.30;;;;;;;;;;4979057;28;20072;-90
2021/08/06 08:32:38;;;;;;;1.83;1.13;;;;;;;;;;4977518;28;20023;-92
2021/08/06 08:35:05;;;;;;;2.55;0.30;;;;;;;;;;4994432;28;20034;-91
2021/08/06 08:37:31;;;;;;;1.85;0.63;;;;;;;;;;4994731;28;20068;-91
2021/08/06 08:39:57;;;;;;;1.48;0.75;;;;;;;;;;4991945;28;20037;-92
2021/08/06 08:42:23;;;;;;;1.47;0.37;;;;;;;;;;4993172;28;20046;-89
2021/08/06 08:44:49;;;;;;;1.37;0.60;;;31.90;29.60;;;;;;4987131;28;20118;-89
2021/08/06 08:47:20;;;;;;;0.25;0.10;;;;;;;;;;4980771;28;20053;-90
2021/08/06 08:49:50;;;;;;;0.95;0.28;;;30.50;29.80;;;;;;4994152;28;20113;-91
2021/08/06 08:52:16;;;;;;;3.75;1.13;;;;;;;;;;4985566;28;20177;-91
2021/08/06 08:54:42;;;;;;;0.75;0.22;;;;;;;;;;4974720;28;20176;-90
2021/08/06 08:57:08;;;;;;;2.88;0.38;;;;;;;;;;4977376;28;20133;-91
2021/08/06 08:59:34;;;;;;;1.38;0.38;;;;;;;;;;4993171;28;20034;-89
2021/08/06 09:02:00;;;;;;;1.20;1.10;;;;;;;;;;4967828;28;20062;-90
2021/08/06 09:04:29;;;;;;;4.07;0.50;;;31.00;29.70;;;;;;4978471;28;20027;-91
2021/08/06 09:06:56;;;;;;;2.03;0.38;;;31.40;30.30;;;;;;4959828;28;20161;-90
2021/08/06 09:09:24;;;;;;;2.05;0.10;;;31.90;29.00;;;;;;4992908;28;20041;-91
2021/08/06 09:12:01;;;;;;;0.77;0.10;;;32.40;28.90;;;;;;4973609;28;20109;-90
2021/08/06 09:14:28;;;;;;;0.70;0.20;;;32.70;28.80;;;;;;4974553;28;20126;-90
2021/08/06 09:17:02;;;;;;;1.23;0.40;;;33.10;28.40;;;;;;4994169;28;20465;-91
2021/08/06 09:19:31;;;;;;;3.35;0.40;;;33.30;26.70;;;;;;4991770;28;20030;-90
2021/08/06 09:22:11;;;;;;;2.17;0.20;;;;;;;;;;4992239;28;20014;-90
2021/08/06 09:24:59;;;;;;;2.00;0.15;;;33.00;27.50;;;;;;4993894;28;20034;-90
2021/08/06 09:27:28;;;;;;;1.35;0.25;;;32.80;27.80;;;;;;4993809;28;20113;-91
2021/08/06 09:29:54;;;;;;;0.95;0.55;;;;;;;;;;4992181;28;20101;-90
2021/08/06 09:32:20;;;;;;;4.72;0.35;;;;;;;;;;4979194;28;20018;-92
2021/08/06 09:34:46;;;;;;;1.42;0.10;;;31.40;28.80;;;;;;4985622;28;20041;-91
2021/08/06 09:37:23;;;;;;;0.50;0.10;;;30.70;29.30;;;;;;4991193;28;20060;-91
2021/08/06 09:39:55;;;;;;;1.55;0.30;;;30.40;29.70;;;;;;4992757;28;20117;-90
2021/08/06 09:42:21;;;;;;;1.20;0.13;;;;;;;;;;4978073;28;20051;-91
2021/08/06 09:44:57;;;;;;;1.17;0.10;;;30.10;30.80;;;;;;4975550;28;20107;-90
2021/08/06 09:47:23;;;;;;;0.50;0.17;;;;;;;;;;4990582;28;20110;-91
2021/08/06 09:49:55;;;;;;;1.27;0.10;;;29.50;31.40;;;;;;4992502;28;20037;-90
2021/08/06 09:52:38;;;;;;;1.20;0.28;;;28.70;31.50;;;;;;4992544;28;20034;-91
2021/08/06 09:55:06;;;;;;;4.63;0.63;;;28.20;33.30;;;;;;4992908;28;20026;-90
2021/08/06 09:57:32;;;;;;;1.33;0.30;;;;;;;;;;4990997;28;20101;-91
2021/08/06 10:00:00;;;;;;;0.67;0.30;;;27.20;35.40;;;;;;4992737;28;20499;-90
2021/08/06 10:02:28;;;;;;;1.02;0.30;;;26.80;35.80;;;;;;4972658;28;20033;-89
2021/08/06 10:05:11;;;;;;;0.63;0.32;;;26.50;36.50;;;;;;4970134;28;20037;-89
2021/08/06 10:07:40;;;;;;;1.13;0.20;;;;;;;;;;4967160;28;20027;-90
2021/08/06 10:10:09;;;;;;;0.85;0.28;;;26.40;38.30;;;;;;4979279;28;20039;-88
2021/08/06 10:12:35;;;;;;;3.47;0.50;;;;;;;;;;4976842;28;20015;-90
2021/08/06 10:15:01;;;;;;;1.02;0.45;;;;;;;;;;4975551;28;20121;-91
2021/08/06 10:17:27;;;;;;;4.75;0.45;;;;;;;;;;4976682;28;20108;-90
2021/08/06 10:19:53;;;;;;;4.13;0.88;;;;;;;;;;4992594;28;20716;-90
2021/08/06 10:22:20;;;;;;;0.20;0.10;;;26.70;39.30;;;;;;4968627;28;20027;-90
2021/08/06 10:24:49;;;;;;;4.15;0.43;;;27.20;37.10;;;;;;4967916;28;20023;-90
2021/08/06 10:27:18;;;;;;;5.93;0.40;;;;;;;;;;4992700;28;20509;-89
2021/08/06 10:29:54;;;;;;;1.55;0.65;;;28.70;34.40;;;;;;4993001;28;20034;-89
2021/08/06 10:32:20;;;;;;;6.10;0.93;;;;;;;;;;4983507;28;20050;-90
2021/08/06 10:35:06;;;;;;;1.55;0.20;;;30.40;31.60;;;;;;4982550;28;20483;-90
2021/08/06 10:37:55;;;;;;;2.20;0.38;;;30.30;31.70;;;;;;4975360;28;20041;-88
2021/08/06 10:40:34;;;;;;;1.88;0.20;;;;;;;;;;4985041;28;20043;-90
2021/08/06 10:43:09;;;;;;;2.15;0.40;;;;;;;;;;4979555;28;20042;-91
2021/08/06 10:45:47;;;;;;;1.30;0.77;;;;;;;;;;4973820;28;20037;-90
2021/08/06 10:48:31;;;;;;;1.58;0.25;;;;;;;;;;4989934;28;20494;-90
2021/08/06 10:51:13;;;;;;;1.73;0.43;;;;;;;;;;4991577;28;20029;-89
2021/08/06 10:53:43;;;;;;;2.88;0.38;;;30.20;32.70;;;;;;4992288;28;20042;-90
2021/08/06 10:56:18;;;;;;;1.05;0.10;;;;;;;;;;4975415;28;20015;-89
2021/08/06 10:58:48;;;;;;;0.57;0.30;;;;;;;;;;4988857;28;20015;-89
2021/08/06 11:01:30;;;;;;;3.75;0.90;;;;;;;;;;4992684;28;20520;-90
2021/08/06 11:04:23;;;;;;;3.75;0.35;;;30.60;30.70;;;;;;4993167;28;20049;-91
2021/08/06 11:06:54;;;;;;;0.40;0.40;;;30.30;33.10;;;;;;4988793;28;20041;-88
2021/08/06 11:09:26;;;;;;;1.95;0.20;;;;;;;;;;4990495;28;20034;-90
2021/08/06 11:11:52;;;;;;;0.70;0.47;;;;;;;;;;4992218;28;20033;-90
2021/08/06 11:14:30;;;;;;;1.50;0.30;;;;;;;;;;4978154;28;20489;-89
2021/08/06 11:16:59;;;;;;;0.77;0.25;;;;;;;;;;4990034;28;20605;-90
2021/08/06 11:19:31;;;;;;;2.10;0.10;;;29.00;34.00;;;;;;4972776;28;20037;-88
2021/08/06 11:21:57;;;;;;;2.13;0.40;;;;;;;;;;4975700;28;20031;-90
2021/08/06 11:24:23;;;;;;;0.73;0.30;;;;;;;;;;4989782;28;20495;-89
2021/08/06 11:26:50;;;;;;;2.00;0.40;;;;;;;;;;4991954;28;20026;-89
2021/08/06 11:29:17;;;;;;;2.10;0.30;;;;;;;;;;4989580;28;20049;-90
2021/08/06 11:31:43;;;;;;;0.88;0.20;;;;;;;;;;4965777;28;20018;-90
2021/08/06 11:34:09;;;;;;;2.97;0.50;;;;;;;;;;4988319;28;20073;-90
2021/08/06 11:36:36;;;;;;;1.50;0.73;;;27.70;35.00;;;;;;4988316;28;20023;-90
2021/08/06 11:39:12;;;;;;;0.77;0.40;;;27.60;37.10;;;;;;4970645;28;20030;-90
2021/08/06 11:41:49;;;;;;;2.50;0.25;;;27.60;36.40;;;;;;4986902;28;20054;-89
2021/08/06 11:44:15;;;;;;;;;;;27.60;35.90;;;;;;4973672;28;20062;-91
2021/08/06 11:46:49;;;;;;;0.53;0.30;;;27.40;33.80;;;;;;4969976;28;19924;-90
2021/08/06 11:49:15;;;;;;;1.55;0.40;;;;;;;;;;4992124;28;20026;-89
2021/08/06 11:51:57;;;;;;;0.50;0.20;;;27.40;35.70;;;;;;4991959;28;20087;-89
2021/08/06 11:54:24;;;;;;;2.05;0.38;;;;;;;;;;4994140;28;20062;-90
2021/08/06 11:56:58;;;;;;;1.25;0.45;;;27.30;36.50;;;;;;4995480;28;20034;-88
2021/08/06 11:59:24;;;;;;;0.30;0.30;;;;;;;;;;4994827;28;20042;-89
2021/08/06 12:02:13;;;;;;;2.58;0.50;;;27.00;36.00;;;;;;4984540;28;20102;-89
2021/08/06 12:04:39;;;;;;;0.43;0.13;;;;;;;;;;4984089;28;20085;-89
2021/08/06 12:07:05;;;;;;;0.60;0.30;;;;;;;;;;4994729;28;20590;-89
2021/08/06 12:09:31;;;;;;;4.72;0.60;;;;;;;;;;4977523;28;20057;-91
2021/08/06 12:11:57;;;;;;;2.60;0.63;;;;;;;;;;4974010;28;20120;-93
2021/08/06 12:14:28;;;;;;;3.65;1.20;;;;;;;;;;4978266;28;20853;-89
2021/08/06 12:16:54;;;;;;;1.08;0.40;;;;;;;;;;4983679;28;20035;-90
2021/08/06 12:19:20;;;;;;;3.20;0.73;;;;;;;;;;4958832;28;20547;-90
2021/08/06 12:21:46;;;;;;;0.40;0.25;;;;;;;;;;4986299;28;20371;-89
2021/08/06 12:24:22;;;;;;;3.08;1.33;;;;;;;;;;4971628;28;20121;-89
2021/08/06 12:26:55;;;;;;;3.80;0.55;;;26.80;39.00;;;;;;4977585;28;20045;-89
2021/08/06 12:29:30;;;;;;;1.95;0.98;;;26.90;37.80;;;;;;4981863;28;20042;-90
2021/08/06 12:31:57;;;;;;;1.30;0.45;;;27.00;39.00;;;;;;4968524;28;20030;-90
2021/08/06 12:34:27;;;;;;;0.73;0.50;;;27.10;36.10;;;;;;4989351;28;20030;-90
2021/08/06 12:36:56;;;;;;;0.88;0.40;;;;;;;;;;4976233;28;20092;-89
2021/08/06 12:39:22;;;;;;;1.50;0.30;;;;;;;;;;4961857;28;20038;-89
2021/08/06 12:41:49;;;;;;;2.22;0.57;;;;;;;;;;4971971;28;20053;-90
2021/08/06 12:44:29;;;;;;;1.15;0.30;;;27.20;37.00;;;;;;4976719;28;20521;-88
2021/08/06 12:47:12;;;;;;;2.92;0.52;;;27.20;36.80;;;;;;4993693;28;20023;-91
2021/08/06 12:49:39;;;;;;;2.75;0.77;;;;;;;;;;4993651;28;20037;-90
2021/08/06 12:52:26;;;;;;;0.60;0.40;;;27.40;35.90;;;;;;4991666;28;20023;-89
2021/08/06 12:54:55;;;;;;;0.38;0.20;;;;;;;;;;4958935;28;20041;-91
2021/08/06 12:57:42;;;;;;;0.95;0.32;;;27.40;38.50;;;;;;4994597;28;20038;-90
2021/08/06 13:00:20;;;;;;;2.63;0.30;;;;;;;;;;4975228;28;20035;-89
2021/08/06 13:03:09;;;;;;;2.97;0.32;;;27.20;37.20;;;;;;4990414;28;20030;-88
2021/08/06 13:05:39;;;;;;;3.75;0.50;;;26.90;37.40;;;;;;4976640;28;20029;-90
2021/08/06 13:08:15;;;;;;;1.23;0.30;;;;;;;;;;4988157;28;20034;-90
2021/08/06 13:10:41;;;;;;;0.35;0.20;;;;;;;;;;4983402;28;20031;-90
2021/08/06 13:13:07;;;;;;;1.08;0.40;;;;;;;;;;4982319;28;20030;-90
2021/08/06 13:15:33;;;;;;;1.52;0.70;;;;;;;;;;4976802;28;20053;-90
2021/08/06 13:17:59;;;;;;;2.50;0.40;;;;;;;;;;4961213;28;20061;-90
2021/08/06 13:20:25;;;;;;;1.48;0.30;;;;;;;;;;4988556;28;20087;-89
2021/08/06 13:22:52;;;;;;;;;;;27.10;37.90;;;;;;4993032;28;20054;-90
2021/08/06 13:25:19;;;;;;;4.20;0.37;;;;;;;;;;4983575;28;20437;-90
2021/08/06 13:27:45;;;;;;;;;;;26.90;36.40;;;;;;4994682;28;20057;-91
2021/08/06 13:30:12;;;;;;;0.75;0.50;;;;;;;;;;4968982;28;20283;-90
2021/08/06 13:32:38;;;;;;;0.20;0.13;;;;;;;;;;4982641;28;20109;-89
2021/08/06 13:35:05;;;;;;;6.15;1.73;;;26.80;37.20;;;;;;4975606;28;20125;-91
2021/08/06 13:37:31;;;;;;;1.42;0.68;;;;;;;;;;4969689;28;20094;-91
2021/08/06 13:39:58;;;;;;;2.33;0.50;;;;;;;;;;4988223;28;20041;-90
2021/08/06 13:42:24;;;;;;;0.63;0.30;;;;;;;;;;4992977;28;20078;-90
2021/08/06 13:44:50;;;;;;;1.17;0.63;;;;;;;;;;4988419;28;20034;-91
2021/08/06 13:47:16;;;;;;;3.85;0.45;;;;;;;;;;4975710;28;20040;-92
2021/08/06 13:49:42;;;;;;;0.85;0.32;;;;;;;;;;4970396;28;20026;-91
2021/08/06 13:52:08;;;;;;;1.65;0.57;;;;;;;;;;4980045;28;20022;-90
2021/08/06 13:54:34;;;;;;;1.02;0.43;;;;;;;;;;4988777;28;20045;-91
2021/08/06 13:57:00;;;;;;;4.90;0.55;;;;;;;;;;4974853;28;20446;-89
2021/08/06 13:59:26;;;;;;;0.85;0.40;;;;;;;;;;4981273;28;20034;-89
2021/08/06 14:01:53;;;;;;;3.05;0.38;;;26.60;36.90;;;;;;4968261;28;20106;-91
2021/08/06 14:04:20;;;;;;;0.30;0.30;;;26.50;38.50;;;;;;4977935;28;20482;-90
2021/08/06 14:06:46;;;;;;;0.63;0.35;;;;;;;;;;4960031;28;20109;-91
2021/08/06 14:09:12;;;;;;;0.10;0.10;;;;;;;;;;4991805;28;20065;-90
2021/08/06 14:11:38;;;;;;;0.73;0.52;;;;;;;;;;4981473;28;20676;-89
2021/08/06 14:14:04;;;;;;;1.63;0.60;;;;;;;;;;4983465;28;20039;-90
2021/08/06 14:16:30;;;;;;;4.15;0.60;;;;;;;;;;4985485;28;20024;-91
2021/08/06 14:18:56;;;;;;;0.98;0.75;;;;;;;;;;4974913;28;20026;-89
2021/08/06 14:21:22;;;;;;;0.85;0.35;;;;;;;;;;4973887;28;20053;-91